Time;durP1;ratioP1;P1;durP2;ratioP2;P2;SDS_P1;SDS_P2;PMS_P1;PMS_P2;Temp;Humidity;BMP_temperature;BMP_pressure;BME280_temperature;BME280_humidity;BME280_pressure;Samples;Min_cycle;Max_cycle;Signal;HPM_P1;HPM_P2
2022/11/25 00:00:51;;;;;;;23.08;4.43;;;7.30;99.90;;;;;;5059883;28;20222;-47
2022/11/25 00:03:17;;;;;;;17.58;4.63;;;7.30;99.90;;;;;;5059329;28;20128;-47
2022/11/25 00:05:42;;;;;;;22.02;4.45;;;7.40;99.90;;;;;;5058851;28;20044;-47
2022/11/25 00:08:08;;;;;;;19.50;4.18;;;7.40;99.90;;;;;;5059620;28;20052;-46
2022/11/25 00:10:34;;;;;;;22.60;4.32;;;7.40;99.90;;;;;;5059745;28;20054;-43
2022/11/25 00:12:59;;;;;;;16.92;5.47;;;7.40;99.90;;;;;;5059025;28;20419;-47
2022/11/25 00:15:25;;;;;;;24.90;4.97;;;7.40;99.90;;;;;;5059537;28;20052;-46
2022/11/25 00:17:51;;;;;;;17.88;4.72;;;7.40;99.90;;;;;;5060117;28;20051;-47
2022/11/25 00:20:19;;;;;;;14.25;4.45;;;7.40;99.90;;;;;;5059798;28;20438;-48
2022/11/25 00:22:45;;;;;;;23.70;4.90;;;7.40;99.90;;;;;;5058066;28;20489;-44
2022/11/25 00:25:10;;;;;;;17.48;4.05;;;7.40;99.90;;;;;;5058747;28;20119;-47
2022/11/25 00:27:36;;;;;;;15.70;4.65;;;7.40;99.90;;;;;;5059972;28;20130;-49
2022/11/25 00:30:02;;;;;;;18.40;4.32;;;7.40;99.90;;;;;;5059487;28;20067;-47
2022/11/25 00:32:27;;;;;;;18.25;4.53;;;7.40;99.90;;;;;;5055083;28;20052;-44
2022/11/25 00:34:53;;;;;;;23.15;5.38;;;7.50;99.90;;;;;;5050703;28;20058;-45
2022/11/25 00:37:19;;;;;;;15.10;5.32;;;7.40;99.90;;;;;;5060015;28;20103;-46
2022/11/25 00:39:44;;;;;;;18.45;4.63;;;7.40;99.90;;;;;;5059412;28;20447;-44
2022/11/25 00:44:54;;;;;;;18.83;4.70;;;7.50;99.90;;;;;;5059333;28;20137;-46
2022/11/25 00:47:20;;;;;;;14.57;3.85;;;7.50;99.90;;;;;;5059827;28;20123;-49
2022/11/25 00:49:48;;;;;;;18.80;5.10;;;7.50;99.90;;;;;;5059447;28;20059;-46
2022/11/25 00:52:19;;;;;;;21.70;4.97;;;7.50;99.90;;;;;;5059499;28;20515;-46
2022/11/25 00:54:48;;;;;;;18.33;4.25;;;7.50;99.90;;;;;;5059290;28;20557;-46
2022/11/25 00:57:16;;;;;;;21.30;5.15;;;7.50;99.90;;;;;;5060518;28;20041;-45
2022/11/25 00:59:41;;;;;;;15.10;3.95;;;7.50;99.90;;;;;;5057801;28;20414;-47
2022/11/25 01:02:09;;;;;;;18.67;4.88;;;7.50;99.90;;;;;;5055733;28;20870;-49
2022/11/25 01:04:35;;;;;;;18.05;5.32;;;7.50;99.90;;;;;;5055534;28;20059;-44
2022/11/25 01:07:01;;;;;;;17.58;4.63;;;7.50;99.90;;;;;;5037852;28;20044;-48
2022/11/25 01:09:27;;;;;;;16.55;4.40;;;7.50;99.90;;;;;;5056589;28;20088;-46
2022/11/25 01:11:53;;;;;;;16.83;4.93;;;7.50;99.90;;;;;;5056412;28;20442;-45
2022/11/25 01:14:20;;;;;;;16.70;4.90;;;7.50;99.90;;;;;;5056437;28;20235;-47
2022/11/25 01:16:46;;;;;;;16.45;4.90;;;7.50;99.90;;;;;;5055547;28;20053;-46
2022/11/25 01:19:12;;;;;;;15.90;4.72;;;7.50;99.90;;;;;;5056587;28;20060;-46
2022/11/25 01:21:38;;;;;;;15.63;4.65;;;7.50;99.90;;;;;;5055705;28;20597;-45
2022/11/25 01:24:05;;;;;;;20.95;5.18;;;7.50;99.90;;;;;;5054601;28;20499;-48
2022/11/25 01:26:32;;;;;;;21.08;4.95;;;7.60;99.90;;;;;;5056425;28;20124;-47
2022/11/25 01:29:02;;;;;;;18.77;4.80;;;7.60;99.90;;;;;;5056180;28;20147;-48
2022/11/25 01:31:33;;;;;;;24.77;5.93;;;7.60;99.90;;;;;;5054799;28;20092;-46
2022/11/25 01:34:05;;;;;;;27.80;5.53;;;7.50;99.90;;;;;;5043250;28;20134;-49
2022/11/25 01:36:31;;;;;;;20.80;6.32;;;7.50;99.90;;;;;;5056651;28;20048;-44
2022/11/25 01:38:58;;;;;;;20.67;4.47;;;7.50;99.90;;;;;;5056366;28;20055;-45
2022/11/25 01:41:27;;;;;;;20.73;5.30;;;7.50;99.90;;;;;;5044143;28;20053;-48
2022/11/25 01:44:16;;;;;;;20.85;5.07;;;7.40;99.90;;;;;;5054805;28;20048;-45
2022/11/25 01:46:46;;;;;;;20.05;5.13;;;7.40;99.90;;;;;;5055922;28;20394;-43
2022/11/25 01:49:27;;;;;;;25.73;5.82;;;7.40;99.90;;;;;;5055763;28;20474;-44
2022/11/25 01:52:00;;;;;;;26.50;5.78;;;7.40;99.90;;;;;;5055492;28;20052;-44
2022/11/25 01:54:30;;;;;;;20.27;5.20;;;7.40;99.90;;;;;;5055916;28;20130;-46
2022/11/25 01:57:03;;;;;;;20.23;4.65;;;7.40;99.90;;;;;;5056452;28;20131;-43
2022/11/25 01:59:31;;;;;;;21.60;4.63;;;7.40;99.90;;;;;;5056613;28;20088;-48
2022/11/25 02:01:58;;;;;;;19.92;4.72;;;7.30;99.90;;;;;;5056146;28;20052;-44
2022/11/25 02:04:29;;;;;;;23.23;5.80;;;7.30;99.90;;;;;;5055916;28;20052;-49
2022/11/25 02:07:02;;;;;;;25.02;5.45;;;7.30;99.90;;;;;;5054596;28;20415;-43
2022/11/25 02:09:29;;;;;;;19.73;5.07;;;7.40;99.90;;;;;;5056489;28;20518;-47
2022/11/25 02:11:56;;;;;;;27.10;5.63;;;7.40;99.90;;;;;;5055715;28;20053;-47
2022/11/25 02:14:24;;;;;;;22.42;5.10;;;7.30;99.90;;;;;;5055876;28;20044;-45
2022/11/25 02:16:49;;;;;;;23.80;6.47;;;7.30;99.90;;;;;;5056226;28;20044;-50
2022/11/25 02:19:38;;;;;;;23.15;5.78;;;7.30;99.90;;;;;;5055323;28;20048;-44
2022/11/25 02:22:10;;;;;;;26.02;5.90;;;7.30;99.90;;;;;;5055171;28;20127;-48
2022/11/25 02:24:42;;;;;;;24.70;7.43;;;7.30;99.90;;;;;;5055576;28;20550;-45
2022/11/25 02:27:07;;;;;;;27.50;6.07;;;7.30;99.90;;;;;;5054045;28;20568;-43
2022/11/25 02:29:34;;;;;;;26.85;6.13;;;7.30;99.90;;;;;;5055900;28;20080;-45
2022/11/25 02:32:00;;;;;;;28.50;6.40;;;7.30;99.90;;;;;;5035636;28;20731;-48
2022/11/25 02:34:25;;;;;;;25.40;6.25;;;7.30;99.90;;;;;;5043006;28;20052;-49
2022/11/25 02:36:52;;;;;;;27.65;6.50;;;7.20;99.90;;;;;;5088701;28;20060;-43
2022/11/25 02:39:19;;;;;;;24.50;6.30;;;7.30;99.90;;;;;;5055775;28;20049;-44
2022/11/25 02:41:54;;;;;;;25.58;6.90;;;7.30;99.90;;;;;;5040786;28;20458;-45
2022/11/25 02:44:20;;;;;;;22.83;6.47;;;7.30;99.90;;;;;;5053579;28;20048;-46
2022/11/25 02:46:46;;;;;;;19.98;6.20;;;7.20;99.90;;;;;;5054840;28;20044;-48
2022/11/25 02:49:12;;;;;;;27.80;6.53;;;7.30;99.90;;;;;;5055161;28;20476;-43
2022/11/25 02:51:40;;;;;;;25.23;6.65;;;7.40;99.90;;;;;;5054620;28;20052;-43
2022/11/25 02:54:06;;;;;;;28.23;7.82;;;7.40;99.90;;;;;;5055651;28;20311;-45
2022/11/25 02:56:33;;;;;;;26.95;7.20;;;7.30;99.90;;;;;;5054937;28;20040;-51
2022/11/25 02:59:00;;;;;;;26.67;7.05;;;7.30;99.90;;;;;;5054513;28;20497;-49
2022/11/25 03:01:26;;;;;;;29.08;7.97;;;7.30;99.90;;;;;;5046963;28;20522;-50
2022/11/25 03:03:52;;;;;;;31.50;7.53;;;7.40;99.90;;;;;;5053292;28;20044;-48
2022/11/25 03:06:18;;;;;;;24.10;7.18;;;7.40;99.90;;;;;;5052183;28;20050;-42
2022/11/25 03:08:44;;;;;;;25.58;7.15;;;7.40;99.90;;;;;;5054566;28;20441;-46
2022/11/25 03:11:09;;;;;;;29.92;7.57;;;7.40;99.90;;;;;;5054622;28;20052;-44
2022/11/25 03:13:35;;;;;;;26.27;6.65;;;7.40;99.90;;;;;;5052554;28;20059;-46
2022/11/25 03:16:01;;;;;;;30.85;7.25;;;7.30;99.90;;;;;;5052708;28;20139;-47
2022/11/25 03:18:26;;;;;;;23.30;7.43;;;7.50;99.90;;;;;;5054584;28;20053;-44
2022/11/25 03:20:53;;;;;;;20.73;7.00;;;7.40;99.90;;;;;;5054658;28;20056;-43
2022/11/25 03:23:19;;;;;;;23.25;7.18;;;7.40;99.90;;;;;;5052123;28;20052;-47
2022/11/25 03:25:45;;;;;;;26.55;7.63;;;7.50;99.90;;;;;;5053833;28;20044;-45
2022/11/25 03:28:10;;;;;;;23.30;7.43;;;7.50;99.90;;;;;;5053881;28;20071;-45
2022/11/25 03:30:36;;;;;;;22.73;7.97;;;7.50;99.90;;;;;;5054347;28;20095;-45
2022/11/25 03:33:02;;;;;;;31.33;8.05;;;7.40;99.90;;;;;;5044699;28;20049;-44
2022/11/25 03:35:28;;;;;;;31.73;8.52;;;7.40;99.90;;;;;;5050260;28;20072;-42
2022/11/25 03:37:54;;;;;;;19.60;7.47;;;7.40;99.90;;;;;;5054951;28;20498;-47
2022/11/25 03:40:20;;;;;;;21.08;7.63;;;7.50;99.90;;;;;;5052995;28;20044;-46
2022/11/25 03:42:46;;;;;;;22.40;7.55;;;7.50;99.90;;;;;;5042043;28;20149;-46
2022/11/25 03:45:14;;;;;;;24.55;8.40;;;7.60;99.90;;;;;;5053717;28;20399;-43
2022/11/25 03:47:43;;;;;;;24.73;8.75;;;7.60;99.90;;;;;;5054426;28;20080;-46
2022/11/25 03:50:11;;;;;;;22.85;8.10;;;7.50;99.90;;;;;;5053462;28;20090;-44
2022/11/25 03:52:37;;;;;;;28.02;8.82;;;7.50;99.90;;;;;;5053034;28;20048;-47
2022/11/25 03:55:04;;;;;;;30.25;8.88;;;7.40;99.90;;;;;;5051086;28;20097;-43
2022/11/25 03:57:31;;;;;;;24.05;8.73;;;7.50;99.90;;;;;;5053168;28;20199;-48
2022/11/25 03:59:57;;;;;;;26.48;8.20;;;7.40;99.90;;;;;;5053439;28;20101;-45
2022/11/25 04:02:22;;;;;;;22.05;7.50;;;7.50;99.90;;;;;;5054046;28;20048;-45
2022/11/25 04:04:48;;;;;;;23.55;7.45;;;7.50;99.90;;;;;;5053041;28;20044;-42
2022/11/25 04:07:14;;;;;;;32.45;8.40;;;7.50;99.90;;;;;;5053373;28;20412;-42
2022/11/25 04:09:40;;;;;;;33.13;9.02;;;7.50;99.90;;;;;;5052812;28;20049;-48
2022/11/25 04:14:50;;;;;;;22.30;8.68;;;7.50;99.90;;;;;;5053202;28;20079;-48
2022/11/25 04:17:16;;;;;;;23.60;8.38;;;7.60;99.90;;;;;;5052056;28;20056;-46
2022/11/25 04:19:41;;;;;;;29.33;8.38;;;7.50;99.90;;;;;;5052729;28;20113;-45
2022/11/25 04:22:07;;;;;;;32.08;9.25;;;7.50;99.90;;;;;;5043405;28;20485;-48
2022/11/25 04:24:33;;;;;;;34.78;9.05;;;7.50;99.90;;;;;;5052292;28;20052;-48
2022/11/25 04:26:58;;;;;;;27.73;7.57;;;7.70;99.90;;;;;;5054143;28;20047;-44
2022/11/25 04:29:24;;;;;;;29.10;8.52;;;7.50;99.90;;;;;;5054027;28;20052;-47
2022/11/25 04:31:50;;;;;;;29.20;7.90;;;7.70;99.90;;;;;;5053918;28;20044;-43
2022/11/25 04:34:15;;;;;;;30.77;8.70;;;7.60;99.90;;;;;;5039556;28;20091;-45
2022/11/25 04:36:41;;;;;;;27.90;8.13;;;7.50;99.90;;;;;;5056195;28;20159;-46
2022/11/25 04:39:06;;;;;;;28.40;8.30;;;7.70;99.90;;;;;;5055238;28;20510;-44
2022/11/25 04:41:33;;;;;;;22.05;9.07;;;7.60;99.90;;;;;;5045051;28;20080;-46
2022/11/25 04:43:59;;;;;;;25.40;7.78;;;7.70;99.90;;;;;;5055972;28;20127;-48
2022/11/25 04:46:31;;;;;;;27.73;8.50;;;7.60;99.90;;;;;;5057244;28;20499;-46
2022/11/25 04:48:57;;;;;;;22.65;7.93;;;7.50;99.90;;;;;;5057182;28;20052;-42
2022/11/25 04:51:23;;;;;;;26.20;8.40;;;7.60;99.90;;;;;;5055961;28;20463;-45
2022/11/25 04:53:49;;;;;;;22.40;7.90;;;7.60;99.90;;;;;;5054704;28;20501;-44
2022/11/25 04:56:17;;;;;;;31.15;8.48;;;7.50;99.90;;;;;;5056679;28;20050;-42
2022/11/25 05:01:27;;;;;;;28.52;8.32;;;7.70;99.90;;;;;;5055604;28;20063;-44
2022/11/25 05:03:53;;;;;;;27.63;9.15;;;7.60;99.90;;;;;;5054900;28;20413;-44
2022/11/25 05:06:18;;;;;;;26.15;7.82;;;7.50;99.90;;;;;;5054070;28;20509;-43
2022/11/25 05:08:47;;;;;;;33.25;8.68;;;7.60;99.90;;;;;;5056682;28;20558;-45
2022/11/25 05:11:13;;;;;;;25.63;7.38;;;7.70;99.90;;;;;;5055898;28;20067;-47
2022/11/25 05:13:38;;;;;;;31.75;8.05;;;7.60;99.90;;;;;;5056658;28;20392;-46
2022/11/25 05:16:04;;;;;;;34.17;8.68;;;7.60;99.90;;;;;;5055369;28;20049;-45
2022/11/25 05:18:30;;;;;;;25.02;7.85;;;7.60;99.90;;;;;;5055520;28;20056;-47
2022/11/25 05:21:03;;;;;;;30.73;7.60;;;7.70;99.90;;;;;;5055706;28;20063;-47
2022/11/25 05:23:29;;;;;;;29.88;8.15;;;7.60;99.90;;;;;;5048338;28;20445;-45
2022/11/25 05:26:02;;;;;;;23.27;7.85;;;7.60;99.90;;;;;;5083000;28;20553;-48
2022/11/25 05:28:28;;;;;;;;;;;7.60;99.90;;;;;;5051141;28;20330;-49
2022/11/25 05:30:54;;;;;;;25.60;7.45;;;7.50;99.90;;;;;;5056449;28;20338;-45
2022/11/25 05:33:20;;;;;;;25.58;7.32;;;7.60;99.90;;;;;;5043982;28;20059;-46
2022/11/25 05:35:53;;;;;;;27.60;8.30;;;7.60;99.90;;;;;;5072747;28;20048;-47
2022/11/25 05:38:20;;;;;;;25.63;8.02;;;7.60;99.90;;;;;;5056788;28;20063;-49
2022/11/25 05:40:45;;;;;;;31.30;8.80;;;7.70;99.90;;;;;;5050812;28;20052;-43
2022/11/25 05:43:11;;;;;;;27.52;8.27;;;7.70;99.90;;;;;;5047882;28;20052;-44
2022/11/25 05:45:38;;;;;;;22.45;7.97;;;7.70;99.90;;;;;;5053944;28;20053;-44
2022/11/25 05:48:04;;;;;;;19.95;7.47;;;7.80;99.90;;;;;;5055245;28;20048;-48
2022/11/25 05:50:29;;;;;;;24.27;7.85;;;7.80;99.90;;;;;;5055189;28;20564;-48
2022/11/25 05:52:55;;;;;;;26.30;7.93;;;7.80;99.90;;;;;;5055124;28;20052;-50
2022/11/25 05:55:20;;;;;;;27.77;8.00;;;7.70;99.90;;;;;;5054018;28;20126;-47
2022/11/25 05:57:46;;;;;;;23.10;8.45;;;7.70;99.90;;;;;;5055348;28;20048;-49
2022/11/25 06:00:12;;;;;;;20.75;7.85;;;7.70;99.90;;;;;;5054864;28;20048;-47
2022/11/25 06:02:38;;;;;;;24.90;8.70;;;7.60;99.90;;;;;;5054243;28;20056;-42
2022/11/25 06:05:04;;;;;;;29.65;8.75;;;7.60;99.90;;;;;;5054706;28;20059;-44
2022/11/25 06:07:29;;;;;;;23.20;9.07;;;7.70;99.90;;;;;;5055500;28;20045;-49
2022/11/25 06:09:55;;;;;;;24.45;8.57;;;7.60;99.90;;;;;;5055212;28;20335;-48
2022/11/25 06:12:21;;;;;;;24.73;8.32;;;7.60;99.90;;;;;;5055215;28;20557;-47
2022/11/25 06:14:47;;;;;;;30.63;8.93;;;7.60;99.90;;;;;;5054313;28;20101;-44
2022/11/25 06:17:12;;;;;;;28.20;8.45;;;7.60;99.90;;;;;;5053824;28;20052;-48
2022/11/25 06:19:38;;;;;;;23.40;8.57;;;7.60;99.90;;;;;;5055256;28;20147;-46
2022/11/25 06:22:03;;;;;;;22.48;8.02;;;7.60;99.90;;;;;;5054599;28;20059;-47
2022/11/25 06:24:29;;;;;;;18.23;7.53;;;7.60;99.90;;;;;;5054614;28;20090;-47
2022/11/25 06:26:55;;;;;;;22.45;8.18;;;7.70;99.90;;;;;;5055587;28;20040;-46
2022/11/25 06:29:21;;;;;;;26.17;8.27;;;7.60;99.90;;;;;;5053713;28;20048;-47
2022/11/25 06:31:48;;;;;;;23.90;8.90;;;7.60;99.90;;;;;;5054304;28;20449;-46
2022/11/25 06:34:14;;;;;;;17.80;7.80;;;7.70;99.90;;;;;;5040964;28;20407;-45
2022/11/25 06:36:40;;;;;;;25.50;7.97;;;7.80;99.90;;;;;;5054722;28;20036;-42
2022/11/25 06:39:05;;;;;;;18.00;8.05;;;7.70;99.90;;;;;;5054139;28;20056;-46
2022/11/25 06:41:31;;;;;;;18.90;8.63;;;7.80;99.90;;;;;;5042380;28;20471;-46
2022/11/25 06:43:57;;;;;;;24.63;8.07;;;7.80;99.90;;;;;;5051576;28;20064;-45
2022/11/25 06:46:22;;;;;;;25.40;8.18;;;7.60;99.90;;;;;;5053140;28;20056;-44
2022/11/25 06:48:48;;;;;;;20.25;7.45;;;7.70;99.90;;;;;;5052823;28;20047;-43
2022/11/25 06:51:16;;;;;;;28.13;8.38;;;7.60;99.90;;;;;;5053624;28;20044;-46
2022/11/25 06:53:42;;;;;;;18.70;7.55;;;7.40;99.90;;;;;;5051718;28;20045;-45
2022/11/25 06:56:11;;;;;;;24.73;7.35;;;7.50;99.90;;;;;;5054056;28;20619;-47
2022/11/25 06:58:38;;;;;;;27.40;8.70;;;7.40;99.90;;;;;;5053266;28;20049;-45
2022/11/25 07:01:15;;;;;;;21.33;8.00;;;7.30;99.90;;;;;;5053108;28;20109;-47
2022/11/25 07:03:43;;;;;;;23.73;8.85;;;7.30;99.90;;;;;;5053072;28;20059;-46
2022/11/25 07:06:11;;;;;;;20.02;7.68;;;7.10;99.90;;;;;;5053702;28;20053;-44
2022/11/25 07:08:37;;;;;;;26.85;9.68;;;7.00;99.90;;;;;;5053773;28;20481;-44
2022/11/25 07:11:05;;;;;;;22.00;8.82;;;7.10;99.90;;;;;;5052527;28;20101;-48
2022/11/25 07:13:31;;;;;;;25.00;8.73;;;6.90;99.90;;;;;;5053212;28;20040;-50
2022/11/25 07:16:01;;;;;;;22.50;8.45;;;6.90;99.90;;;;;;5052407;28;20060;-45
2022/11/25 07:18:29;;;;;;;27.80;8.38;;;7.00;99.90;;;;;;5053974;28;20051;-46
2022/11/25 07:20:54;;;;;;;19.58;8.65;;;6.80;99.90;;;;;;5053232;28;20033;-48
2022/11/25 07:23:20;;;;;;;21.38;8.00;;;6.80;99.90;;;;;;5054078;28;20113;-43
2022/11/25 07:25:46;;;;;;;20.95;8.52;;;6.80;99.90;;;;;;5050653;28;20083;-46
2022/11/25 07:28:11;;;;;;;21.17;8.15;;;6.80;99.90;;;;;;5053490;28;20470;-43
2022/11/25 07:30:37;;;;;;;19.42;8.27;;;6.90;99.90;;;;;;5052469;28;20032;-44
2022/11/25 07:33:02;;;;;;;23.67;7.97;;;6.80;99.90;;;;;;5043962;28;20101;-46
2022/11/25 07:35:28;;;;;;;25.67;7.88;;;6.80;99.90;;;;;;5048816;28;20105;-47
2022/11/25 07:37:54;;;;;;;16.17;7.80;;;6.80;99.90;;;;;;5053803;28;20056;-44
2022/11/25 07:40:20;;;;;;;21.73;8.25;;;6.70;99.90;;;;;;5051260;28;20053;-45
2022/11/25 07:42:45;;;;;;;19.75;8.05;;;6.80;99.90;;;;;;5052361;28;20228;-42
2022/11/25 07:45:11;;;;;;;20.08;8.48;;;6.70;99.90;;;;;;5049605;28;20051;-45
2022/11/25 07:47:36;;;;;;;21.38;8.75;;;6.80;99.90;;;;;;5053169;28;20040;-41
2022/11/25 07:50:02;;;;;;;16.92;8.38;;;6.70;99.90;;;;;;5052833;28;20105;-43
2022/11/25 07:52:28;;;;;;;22.02;8.70;;;6.90;99.90;;;;;;5052871;28;20079;-48
2022/11/25 07:54:54;;;;;;;17.77;8.38;;;6.80;99.90;;;;;;5053056;28;20072;-43
2022/11/25 07:57:19;;;;;;;16.10;7.85;;;6.90;99.90;;;;;;5035954;28;20132;-43
2022/11/25 07:59:45;;;;;;;17.92;7.60;;;6.80;99.90;;;;;;5053511;28;20475;-44
2022/11/25 08:02:11;;;;;;;25.35;8.27;;;6.80;99.90;;;;;;5052605;28;20044;-43
2022/11/25 08:04:36;;;;;;;21.13;8.02;;;6.80;99.90;;;;;;5052661;28;20053;-43
2022/11/25 08:07:02;;;;;;;20.38;8.55;;;6.80;99.90;;;;;;5053349;28;20040;-41
2022/11/25 08:09:28;;;;;;;18.10;8.05;;;6.80;99.90;;;;;;5054285;28;20059;-43
2022/11/25 08:11:53;;;;;;;17.13;7.65;;;6.70;99.90;;;;;;5057220;28;20558;-45
2022/11/25 08:14:20;;;;;;;21.17;7.53;;;6.80;99.90;;;;;;5055606;28;20435;-44
2022/11/25 08:16:45;;;;;;;16.63;7.63;;;6.70;99.90;;;;;;5042865;28;20190;-44
2022/11/25 08:19:14;;;;;;;20.55;8.10;;;6.90;99.90;;;;;;5051380;28;20045;-44
2022/11/25 08:21:41;;;;;;;20.65;7.80;;;6.90;99.90;;;;;;5052259;28;20037;-44
2022/11/25 08:24:07;;;;;;;16.92;7.05;;;6.90;99.90;;;;;;5046238;28;20052;-42
2022/11/25 08:26:36;;;;;;;13.82;6.93;;;6.90;99.90;;;;;;5055778;28;20036;-42
2022/11/25 08:29:03;;;;;;;14.10;8.82;;;6.80;99.90;;;;;;5039682;28;20055;-43
2022/11/25 08:31:32;;;;;;;16.92;7.55;;;6.80;99.90;;;;;;5053651;28;20048;-46
2022/11/25 08:33:58;;;;;;;17.15;8.13;;;6.90;99.90;;;;;;5042118;28;20394;-48
2022/11/25 08:36:25;;;;;;;15.73;8.07;;;7.00;99.90;;;;;;5057692;28;20082;-45
2022/11/25 08:38:54;;;;;;;16.50;8.45;;;7.10;99.90;;;;;;5057054;28;20055;-48
2022/11/25 08:41:38;;;;;;;20.02;8.70;;;7.10;99.90;;;;;;5047343;28;20452;-46
2022/11/25 08:44:06;;;;;;;15.50;8.85;;;7.10;99.90;;;;;;5043807;28;20044;-45
2022/11/25 08:46:35;;;;;;;16.92;9.52;;;7.10;99.90;;;;;;5057935;28;20090;-45
2022/11/25 08:49:02;;;;;;;21.17;9.00;;;7.10;99.90;;;;;;5057735;28;20393;-46
2022/11/25 08:51:30;;;;;;;13.65;9.05;;;7.20;99.90;;;;;;5057255;28;20049;-42
2022/11/25 08:53:56;;;;;;;13.38;8.57;;;7.30;99.90;;;;;;5055639;28;20044;-44
2022/11/25 08:56:23;;;;;;;17.73;9.02;;;7.30;99.90;;;;;;5057790;28;20049;-45
2022/11/25 08:58:49;;;;;;;15.68;8.38;;;7.30;99.90;;;;;;5057550;28;20502;-43
2022/11/25 09:01:17;;;;;;;17.30;8.52;;;7.30;99.90;;;;;;5056569;28;20049;-45
2022/11/25 09:03:45;;;;;;;18.00;8.50;;;7.30;99.90;;;;;;5055607;28;20067;-42
2022/11/25 09:06:12;;;;;;;16.45;8.35;;;7.30;99.90;;;;;;5057357;28;20045;-44
2022/11/25 09:08:39;;;;;;;18.30;8.05;;;7.40;99.90;;;;;;5057826;28;20411;-43
2022/11/25 09:11:05;;;;;;;16.00;7.57;;;7.40;99.90;;;;;;5056817;28;20083;-45
2022/11/25 09:13:31;;;;;;;15.13;8.25;;;7.50;99.90;;;;;;5056464;28;20095;-48
2022/11/25 09:15:57;;;;;;;19.33;8.38;;;7.60;99.90;;;;;;5057329;28;20562;-45
2022/11/25 09:18:28;;;;;;;20.00;8.20;;;7.60;99.90;;;;;;5056569;28;20572;-45
2022/11/25 09:20:55;;;;;;;18.98;7.45;;;7.60;99.90;;;;;;5055403;28;20076;-44
2022/11/25 09:23:22;;;;;;;16.85;7.40;;;7.60;99.90;;;;;;5056221;28;20044;-49
2022/11/25 09:25:55;;;;;;;14.85;7.30;;;7.60;99.90;;;;;;5055940;28;20056;-42
2022/11/25 09:28:22;;;;;;;19.80;7.43;;;7.80;99.90;;;;;;5057010;28;20049;-47
2022/11/25 09:30:48;;;;;;;17.30;7.15;;;7.70;99.90;;;;;;5053807;28;20127;-42
2022/11/25 09:33:14;;;;;;;14.35;7.38;;;7.80;99.90;;;;;;5043473;28;20386;-47
2022/11/25 09:35:40;;;;;;;13.52;7.82;;;7.90;99.90;;;;;;5053361;28;20490;-42
2022/11/25 09:38:06;;;;;;;12.13;7.90;;;7.90;99.90;;;;;;5056200;28;20037;-44
2022/11/25 09:41:02;;;;;;;10.98;6.93;;;8.00;99.90;;;;;;5052703;28;20045;-47
2022/11/25 09:46:53;;;;;;;17.52;7.53;;;8.10;99.90;;;;;;5055802;28;20052;-42
2022/11/25 09:49:37;;;;;;;15.40;7.72;;;8.40;99.90;;;;;;5055795;28;20238;-42
2022/11/25 09:52:12;;;;;;;19.58;7.63;;;8.50;99.90;;;;;;5054687;28;20055;-45
2022/11/25 09:54:43;;;;;;;15.52;6.43;;;8.60;99.90;;;;;;5055464;28;20477;-44
2022/11/25 09:57:20;;;;;;;12.98;5.45;;;8.70;99.90;;;;;;5055902;28;20060;-44
2022/11/25 09:59:45;;;;;;;10.20;5.40;;;8.60;99.90;;;;;;5055612;28;20052;-43
2022/11/25 10:02:24;;;;;;;12.75;6.40;;;8.60;99.90;;;;;;5054828;28;20041;-46
2022/11/25 10:05:18;;;;;;;11.43;6.50;;;8.50;99.90;;;;;;5055618;28;20053;-43
2022/11/25 10:07:50;;;;;;;15.23;5.93;;;8.50;99.90;;;;;;5056059;28;20195;-42
2022/11/25 10:10:27;;;;;;;13.60;5.53;;;8.60;99.90;;;;;;5056042;28;20040;-45
2022/11/25 10:12:55;;;;;;;12.30;5.00;;;8.60;99.90;;;;;;5055514;28;20068;-43
2022/11/25 10:15:34;;;;;;;14.38;5.40;;;8.70;99.90;;;;;;5055150;28;20082;-45
2022/11/25 10:18:05;;;;;;;13.18;5.22;;;8.70;99.90;;;;;;5055196;28;20076;-46
2022/11/25 10:20:36;;;;;;;12.15;5.28;;;8.80;99.90;;;;;;5055285;28;20451;-46
2022/11/25 10:23:17;;;;;;;16.45;5.65;;;8.80;99.90;;;;;;5045446;28;20102;-42
2022/11/25 10:25:50;;;;;;;16.75;5.07;;;8.80;99.90;;;;;;5055430;28;20074;-42
2022/11/25 10:28:19;;;;;;;13.40;5.00;;;8.80;99.90;;;;;;5055420;28;20063;-47
2022/11/25 10:31:11;;;;;;;11.80;4.68;;;8.80;99.90;;;;;;5053019;28;20204;-42
2022/11/25 10:33:43;;;;;;;15.27;4.45;;;8.80;99.90;;;;;;5040863;28;20057;-44
2022/11/25 10:36:17;;;;;;;14.50;4.22;;;8.80;99.90;;;;;;5055119;28;20052;-42
2022/11/25 10:39:01;;;;;;;12.35;3.60;;;8.90;99.90;;;;;;5053961;28;20048;-45
2022/11/25 10:41:32;;;;;;;20.27;4.25;;;8.90;99.90;;;;;;5054337;28;20065;-45
2022/11/25 10:43:57;;;;;;;12.98;3.67;;;8.90;99.90;;;;;;5054228;28;20418;-43
2022/11/25 10:46:35;;;;;;;11.15;3.17;;;8.90;99.90;;;;;;5053803;28;20484;-47
2022/11/25 10:49:18;;;;;;;13.00;4.07;;;9.00;99.90;;;;;;5055388;28;20874;-46
2022/11/25 10:51:48;;;;;;;12.48;3.45;;;9.10;99.90;;;;;;5054039;28;20059;-42
2022/11/25 10:54:13;;;;;;;8.75;3.65;;;9.20;99.90;;;;;;5053625;28;20081;-44
2022/11/25 10:56:55;;;;;;;14.73;4.40;;;9.30;99.90;;;;;;5054599;28;20052;-43
2022/11/25 10:59:32;;;;;;;14.52;2.90;;;9.40;99.90;;;;;;5055006;28;20048;-47
2022/11/25 11:02:23;;;;;;;13.02;3.80;;;9.50;99.90;;;;;;5054460;28;20415;-45
2022/11/25 11:05:07;;;;;;;14.60;3.80;;;9.50;99.90;;;;;;5054439;28;20489;-44
2022/11/25 11:07:41;;;;;;;14.85;3.60;;;9.60;99.90;;;;;;5052998;28;20486;-43
2022/11/25 11:10:13;;;;;;;11.95;2.70;;;9.70;99.90;;;;;;5054473;28;20131;-43
2022/11/25 11:12:49;;;;;;;14.18;3.08;;;9.70;99.90;;;;;;5053829;28;20052;-45
2022/11/25 11:15:21;;;;;;;17.98;5.00;;;9.70;99.90;;;;;;5054078;28;20056;-42
2022/11/25 11:17:47;;;;;;;17.33;3.67;;;9.70;99.90;;;;;;5054844;28;20475;-43
2022/11/25 11:20:29;;;;;;;19.30;3.33;;;9.70;99.90;;;;;;5054543;28;20071;-47
2022/11/25 11:22:55;;;;;;;11.57;2.72;;;9.70;99.90;;;;;;5043943;28;20411;-46
2022/11/25 11:25:22;;;;;;;19.27;4.85;;;9.60;99.90;;;;;;5053945;28;20088;-47
2022/11/25 11:27:48;;;;;;;20.17;4.35;;;9.60;99.90;;;;;;5052584;28;20056;-43
2022/11/25 11:30:20;;;;;;;16.95;4.13;;;9.60;99.90;;;;;;5054627;28;20048;-46
2022/11/25 11:33:26;;;;;;;17.23;3.85;;;9.70;99.90;;;;;;5048966;28;20147;-44
2022/11/25 11:36:09;;;;;;;17.02;2.90;;;9.70;99.90;;;;;;5051103;28;20192;-48
2022/11/25 11:38:43;;;;;;;14.82;3.60;;;9.70;99.90;;;;;;5053668;28;20052;-42
2022/11/25 11:41:23;;;;;;;21.80;4.05;;;9.70;99.90;;;;;;5052796;28;20076;-44
2022/11/25 11:43:55;;;;;;;17.85;3.67;;;9.90;99.90;;;;;;5053436;28;20461;-45
2022/11/25 11:46:57;;;;;;;13.88;3.17;;;10.00;99.90;;;;;;5054874;28;20475;-46
2022/11/25 11:49:59;;;;;;;15.93;3.60;;;10.10;99.90;;;;;;5055065;28;20048;-43
2022/11/25 11:52:43;;;;;;;19.10;3.50;;;10.20;99.90;;;;;;5053932;28;20048;-48
2022/11/25 11:55:40;;;;;;;21.10;4.75;;;10.20;99.90;;;;;;5051979;28;20178;-47
2022/11/25 11:58:34;;;;;;;17.85;4.28;;;10.30;99.90;;;;;;5052498;28;20088;-42
2022/11/25 12:01:02;;;;;;;17.70;3.97;;;10.30;99.90;;;;;;5053480;28;20055;-48
2022/11/25 12:03:33;;;;;;;17.52;4.72;;;10.20;99.90;;;;;;5053655;28;20044;-47
2022/11/25 12:06:03;;;;;;;21.73;3.63;;;10.10;99.90;;;;;;5051686;28;20486;-49
2022/11/25 12:08:33;;;;;;;17.67;3.50;;;10.00;99.90;;;;;;5052421;28;20139;-46
2022/11/25 12:11:03;;;;;;;19.00;3.90;;;10.00;99.90;;;;;;5052846;28;20148;-46
2022/11/25 12:13:52;;;;;;;16.27;4.38;;;10.00;99.90;;;;;;5050246;28;20048;-51
2022/11/25 12:16:30;;;;;;;18.98;3.67;;;10.10;99.90;;;;;;5052452;28;20048;-46
2022/11/25 12:19:08;;;;;;;18.63;4.25;;;10.10;99.90;;;;;;5053134;28;20054;-46
2022/11/25 12:21:52;;;;;;;22.23;4.28;;;10.10;99.90;;;;;;5047931;28;20052;-47
2022/11/25 12:24:32;;;;;;;16.77;5.55;;;10.10;99.90;;;;;;5049278;28;20052;-47
2022/11/25 12:27:21;;;;;;;17.77;3.70;;;10.10;99.90;;;;;;5052646;28;20605;-44
2022/11/25 12:29:59;;;;;;;15.35;4.28;;;10.20;99.90;;;;;;5041089;28;20069;-47
2022/11/25 12:32:56;;;;;;;15.57;3.65;;;10.10;99.90;;;;;;5066039;28;20107;-50
2022/11/25 12:35:37;;;;;;;18.88;3.80;;;10.10;99.90;;;;;;5046379;28;20558;-46
2022/11/25 12:38:17;;;;;;;19.95;4.88;;;10.10;99.90;;;;;;5053330;28;20095;-46
2022/11/25 12:41:01;;;;;;;16.20;4.07;;;10.20;99.90;;;;;;5051269;28;20063;-46
2022/11/25 12:43:48;;;;;;;19.98;4.78;;;10.20;99.90;;;;;;5053410;28;20465;-45
2022/11/25 12:46:37;;;;;;;16.63;3.60;;;10.20;99.90;;;;;;5053613;28;20505;-45
2022/11/25 12:49:05;;;;;;;13.25;3.65;;;10.30;99.90;;;;;;5051559;28;20392;-48
2022/11/25 12:52:08;;;;;;;21.45;4.13;;;10.30;99.90;;;;;;5053064;28;20116;-46
2022/11/25 12:54:43;;;;;;;17.73;3.53;;;10.40;99.90;;;;;;5052781;28;20176;-46
2022/11/25 12:57:27;;;;;;;21.77;3.45;;;10.40;99.90;;;;;;5053262;28;20481;-45
2022/11/25 13:00:25;;;;;;;26.10;4.82;;;10.50;99.90;;;;;;5056886;28;20049;-44
2022/11/25 13:03:09;;;;;;;20.15;4.35;;;10.60;99.90;;;;;;5056791;28;20396;-50
2022/11/25 13:05:41;;;;;;;22.33;3.85;;;10.60;99.90;;;;;;5056079;28;20053;-42
2022/11/25 13:08:41;;;;;;;19.45;4.10;;;10.60;99.90;;;;;;5056038;28;20071;-47
2022/11/25 13:11:49;;;;;;;14.77;4.35;;;10.50;99.90;;;;;;5055426;28;20062;-45